sensor_id;sensor_type;location;lat;lon;timestamp;P1;durP1;ratioP1;P2;durP2;ratioP2
61756;SDS011;57225;61.460;24.060;2023-04-28T00:01:23;7.05;;;1.30;;
61756;SDS011;57225;61.460;24.060;2023-04-28T00:04:08;4.85;;;1.85;;
61756;SDS011;57225;61.460;24.060;2023-04-28T00:06:52;2.75;;;1.00;;
61756;SDS011;57225;61.460;24.060;2023-04-28T00:09:37;3.85;;;1.00;;
61756;SDS011;57225;61.460;24.060;2023-04-28T00:12:21;2.97;;;1.00;;
61756;SDS011;57225;61.460;24.060;2023-04-28T00:15:07;2.42;;;1.20;;
61756;SDS011;57225;61.460;24.060;2023-04-28T00:17:51;4.10;;;1.33;;
61756;SDS011;57225;61.460;24.060;2023-04-28T00:20:36;2.78;;;1.15;;
61756;SDS011;57225;61.460;24.060;2023-04-28T00:23:21;4.20;;;1.65;;
61756;SDS011;57225;61.460;24.060;2023-04-28T00:26:05;4.90;;;1.52;;
61756;SDS011;57225;61.460;24.060;2023-04-28T00:28:50;6.05;;;1.30;;
61756;SDS011;57225;61.460;24.060;2023-04-28T00:31:34;5.80;;;1.35;;
61756;SDS011;57225;61.460;24.060;2023-04-28T00:34:19;2.63;;;1.08;;
61756;SDS011;57225;61.460;24.060;2023-04-28T00:37:03;4.38;;;1.50;;
61756;SDS011;57225;61.460;24.060;2023-04-28T00:39:48;4.57;;;1.33;;
61756;SDS011;57225;61.460;24.060;2023-04-28T00:42:37;8.18;;;1.33;;
61756;SDS011;57225;61.460;24.060;2023-04-28T00:45:22;4.45;;;1.42;;
61756;SDS011;57225;61.460;24.060;2023-04-28T00:48:06;7.90;;;1.70;;
61756;SDS011;57225;61.460;24.060;2023-04-28T00:50:51;5.20;;;1.48;;
61756;SDS011;57225;61.460;24.060;2023-04-28T00:53:35;6.05;;;1.52;;
61756;SDS011;57225;61.460;24.060;2023-04-28T00:56:21;5.50;;;1.40;;
61756;SDS011;57225;61.460;24.060;2023-04-28T00:59:05;8.10;;;1.45;;
61756;SDS011;57225;61.460;24.060;2023-04-28T01:01:51;4.93;;;1.70;;
61756;SDS011;57225;61.460;24.060;2023-04-28T01:04:35;6.90;;;1.48;;
61756;SDS011;57225;61.460;24.060;2023-04-28T01:07:20;7.60;;;1.70;;
61756;SDS011;57225;61.460;24.060;2023-04-28T01:10:04;5.05;;;1.40;;
61756;SDS011;57225;61.460;24.060;2023-04-28T01:12:50;9.02;;;1.60;;
61756;SDS011;57225;61.460;24.060;2023-04-28T01:15:35;8.95;;;1.40;;
61756;SDS011;57225;61.460;24.060;2023-04-28T01:18:19;7.80;;;1.52;;
61756;SDS011;57225;61.460;24.060;2023-04-28T01:21:04;8.57;;;1.70;;
61756;SDS011;57225;61.460;24.060;2023-04-28T01:23:48;6.03;;;1.38;;
61756;SDS011;57225;61.460;24.060;2023-04-28T01:26:33;5.68;;;1.60;;
61756;SDS011;57225;61.460;24.060;2023-04-28T01:29:17;7.13;;;1.38;;
61756;SDS011;57225;61.460;24.060;2023-04-28T01:32:02;9.05;;;2.00;;
61756;SDS011;57225;61.460;24.060;2023-04-28T01:34:46;8.32;;;1.65;;
61756;SDS011;57225;61.460;24.060;2023-04-28T01:37:31;5.30;;;1.60;;
61756;SDS011;57225;61.460;24.060;2023-04-28T01:40:16;4.50;;;1.45;;
61756;SDS011;57225;61.460;24.060;2023-04-28T01:43:00;7.45;;;1.88;;
61756;SDS011;57225;61.460;24.060;2023-04-28T01:45:45;9.35;;;1.90;;
61756;SDS011;57225;61.460;24.060;2023-04-28T01:48:32;8.60;;;2.50;;
61756;SDS011;57225;61.460;24.060;2023-04-28T01:51:17;7.68;;;2.40;;
61756;SDS011;57225;61.460;24.060;2023-04-28T01:54:01;5.25;;;2.30;;
61756;SDS011;57225;61.460;24.060;2023-04-28T01:56:46;8.65;;;1.80;;
61756;SDS011;57225;61.460;24.060;2023-04-28T01:59:30;8.85;;;1.90;;
61756;SDS011;57225;61.460;24.060;2023-04-28T02:02:15;4.15;;;1.80;;
61756;SDS011;57225;61.460;24.060;2023-04-28T02:04:59;7.97;;;2.20;;
61756;SDS011;57225;61.460;24.060;2023-04-28T02:07:45;7.13;;;2.15;;
61756;SDS011;57225;61.460;24.060;2023-04-28T02:10:29;12.40;;;2.30;;
61756;SDS011;57225;61.460;24.060;2023-04-28T02:13:15;7.55;;;1.73;;
61756;SDS011;57225;61.460;24.060;2023-04-28T02:16:00;6.93;;;1.98;;
61756;SDS011;57225;61.460;24.060;2023-04-28T02:18:46;5.88;;;1.70;;
61756;SDS011;57225;61.460;24.060;2023-04-28T02:21:30;10.13;;;2.10;;
61756;SDS011;57225;61.460;24.060;2023-04-28T02:24:16;19.00;;;2.58;;
61756;SDS011;57225;61.460;24.060;2023-04-28T02:27:01;10.35;;;2.30;;
61756;SDS011;57225;61.460;24.060;2023-04-28T02:29:47;9.77;;;2.47;;
61756;SDS011;57225;61.460;24.060;2023-04-28T02:32:32;19.85;;;3.30;;
61756;SDS011;57225;61.460;24.060;2023-04-28T02:35:16;10.45;;;2.58;;
61756;SDS011;57225;61.460;24.060;2023-04-28T02:38:01;8.20;;;2.70;;
61756;SDS011;57225;61.460;24.060;2023-04-28T02:40:46;22.52;;;3.10;;
61756;SDS011;57225;61.460;24.060;2023-04-28T02:43:31;10.73;;;2.35;;
61756;SDS011;57225;61.460;24.060;2023-04-28T02:46:16;4.95;;;2.42;;
61756;SDS011;57225;61.460;24.060;2023-04-28T02:49:00;4.28;;;2.42;;
61756;SDS011;57225;61.460;24.060;2023-04-28T02:51:46;8.98;;;3.05;;
61756;SDS011;57225;61.460;24.060;2023-04-28T02:54:31;5.65;;;2.90;;
61756;SDS011;57225;61.460;24.060;2023-04-28T02:57:17;19.83;;;3.05;;
61756;SDS011;57225;61.460;24.060;2023-04-28T03:00:01;4.78;;;2.25;;
61756;SDS011;57225;61.460;24.060;2023-04-28T03:02:46;16.50;;;3.05;;
61756;SDS011;57225;61.460;24.060;2023-04-28T03:05:31;20.98;;;3.25;;
61756;SDS011;57225;61.460;24.060;2023-04-28T03:08:16;6.63;;;2.38;;
61756;SDS011;57225;61.460;24.060;2023-04-28T03:11:01;8.38;;;2.60;;
61756;SDS011;57225;61.460;24.060;2023-04-28T03:13:47;9.10;;;3.40;;
61756;SDS011;57225;61.460;24.060;2023-04-28T03:16:31;9.48;;;3.00;;
61756;SDS011;57225;61.460;24.060;2023-04-28T03:19:16;5.13;;;2.85;;
61756;SDS011;57225;61.460;24.060;2023-04-28T03:22:00;6.35;;;2.13;;
61756;SDS011;57225;61.460;24.060;2023-04-28T03:24:45;4.60;;;2.28;;
61756;SDS011;57225;61.460;24.060;2023-04-28T03:27:30;18.30;;;2.78;;
61756;SDS011;57225;61.460;24.060;2023-04-28T03:30:15;7.30;;;2.47;;
61756;SDS011;57225;61.460;24.060;2023-04-28T03:33:00;3.95;;;2.10;;
61756;SDS011;57225;61.460;24.060;2023-04-28T03:35:45;3.58;;;2.05;;
61756;SDS011;57225;61.460;24.060;2023-04-28T03:38:30;5.80;;;2.47;;
61756;SDS011;57225;61.460;24.060;2023-04-28T03:41:14;4.90;;;2.20;;
61756;SDS011;57225;61.460;24.060;2023-04-28T03:43:59;4.70;;;2.22;;
61756;SDS011;57225;61.460;24.060;2023-04-28T03:46:46;4.22;;;2.50;;
61756;SDS011;57225;61.460;24.060;2023-04-28T03:49:40;6.68;;;2.78;;
61756;SDS011;57225;61.460;24.060;2023-04-28T03:52:25;7.82;;;2.60;;
61756;SDS011;57225;61.460;24.060;2023-04-28T03:55:10;4.00;;;2.45;;
61756;SDS011;57225;61.460;24.060;2023-04-28T03:57:54;6.25;;;2.67;;
61756;SDS011;57225;61.460;24.060;2023-04-28T04:00:39;4.65;;;2.28;;
61756;SDS011;57225;61.460;24.060;2023-04-28T04:03:23;5.55;;;2.20;;
61756;SDS011;57225;61.460;24.060;2023-04-28T04:06:09;7.57;;;2.13;;
61756;SDS011;57225;61.460;24.060;2023-04-28T04:08:54;2.75;;;2.00;;
61756;SDS011;57225;61.460;24.060;2023-04-28T04:11:39;6.60;;;2.40;;
61756;SDS011;57225;61.460;24.060;2023-04-28T04:14:23;4.60;;;2.30;;
61756;SDS011;57225;61.460;24.060;2023-04-28T04:17:08;3.83;;;2.30;;
61756;SDS011;57225;61.460;24.060;2023-04-28T04:19:52;6.07;;;2.08;;
61756;SDS011;57225;61.460;24.060;2023-04-28T04:22:37;6.30;;;2.22;;
61756;SDS011;57225;61.460;24.060;2023-04-28T04:25:22;9.93;;;2.75;;
61756;SDS011;57225;61.460;24.060;2023-04-28T04:28:07;5.75;;;2.42;;
61756;SDS011;57225;61.460;24.060;2023-04-28T04:30:51;8.40;;;2.50;;
61756;SDS011;57225;61.460;24.060;2023-04-28T04:33:36;7.30;;;2.20;;
61756;SDS011;57225;61.460;24.060;2023-04-28T04:36:20;7.10;;;2.63;;
61756;SDS011;57225;61.460;24.060;2023-04-28T04:39:05;6.65;;;2.28;;
61756;SDS011;57225;61.460;24.060;2023-04-28T04:41:49;12.02;;;3.10;;
61756;SDS011;57225;61.460;24.060;2023-04-28T04:44:34;11.10;;;3.35;;
61756;SDS011;57225;61.460;24.060;2023-04-28T04:47:18;7.90;;;2.65;;
61756;SDS011;57225;61.460;24.060;2023-04-28T04:50:03;7.55;;;3.03;;
61756;SDS011;57225;61.460;24.060;2023-04-28T04:52:47;8.60;;;3.20;;
61756;SDS011;57225;61.460;24.060;2023-04-28T04:55:32;13.15;;;3.03;;
61756;SDS011;57225;61.460;24.060;2023-04-28T04:58:16;4.72;;;2.72;;
61756;SDS011;57225;61.460;24.060;2023-04-28T05:01:01;9.20;;;3.00;;
61756;SDS011;57225;61.460;24.060;2023-04-28T05:03:46;11.45;;;3.00;;
61756;SDS011;57225;61.460;24.060;2023-04-28T05:06:30;15.45;;;3.38;;
61756;SDS011;57225;61.460;24.060;2023-04-28T05:09:15;9.20;;;3.63;;
61756;SDS011;57225;61.460;24.060;2023-04-28T05:12:00;11.05;;;3.13;;
61756;SDS011;57225;61.460;24.060;2023-04-28T05:14:44;6.93;;;3.08;;
61756;SDS011;57225;61.460;24.060;2023-04-28T05:17:29;8.05;;;2.92;;
61756;SDS011;57225;61.460;24.060;2023-04-28T05:20:13;7.05;;;3.00;;
61756;SDS011;57225;61.460;24.060;2023-04-28T05:22:58;4.82;;;2.80;;
61756;SDS011;57225;61.460;24.060;2023-04-28T05:25:43;11.73;;;3.15;;
61756;SDS011;57225;61.460;24.060;2023-04-28T05:28:28;10.18;;;3.00;;
61756;SDS011;57225;61.460;24.060;2023-04-28T05:31:15;13.30;;;3.65;;
61756;SDS011;57225;61.460;24.060;2023-04-28T05:33:59;9.45;;;3.38;;
61756;SDS011;57225;61.460;24.060;2023-04-28T05:36:43;16.45;;;3.63;;
61756;SDS011;57225;61.460;24.060;2023-04-28T05:39:28;6.18;;;3.05;;
61756;SDS011;57225;61.460;24.060;2023-04-28T05:42:13;6.32;;;3.08;;
61756;SDS011;57225;61.460;24.060;2023-04-28T05:44:58;11.27;;;3.28;;
61756;SDS011;57225;61.460;24.060;2023-04-28T05:47:44;7.15;;;3.25;;
61756;SDS011;57225;61.460;24.060;2023-04-28T05:50:28;7.50;;;3.13;;
61756;SDS011;57225;61.460;24.060;2023-04-28T05:53:13;5.65;;;2.80;;
61756;SDS011;57225;61.460;24.060;2023-04-28T05:55:57;15.88;;;3.72;;
61756;SDS011;57225;61.460;24.060;2023-04-28T05:58:41;8.70;;;3.20;;
61756;SDS011;57225;61.460;24.060;2023-04-28T06:01:30;7.03;;;3.33;;
61756;SDS011;57225;61.460;24.060;2023-04-28T06:04:15;11.75;;;3.28;;
61756;SDS011;57225;61.460;24.060;2023-04-28T06:06:59;7.97;;;3.45;;
61756;SDS011;57225;61.460;24.060;2023-04-28T06:09:44;7.88;;;3.08;;
61756;SDS011;57225;61.460;24.060;2023-04-28T06:12:28;7.13;;;3.13;;
61756;SDS011;57225;61.460;24.060;2023-04-28T06:15:13;4.70;;;2.60;;
61756;SDS011;57225;61.460;24.060;2023-04-28T06:17:57;6.60;;;2.80;;
61756;SDS011;57225;61.460;24.060;2023-04-28T06:20:45;9.57;;;2.92;;
61756;SDS011;57225;61.460;24.060;2023-04-28T06:23:29;9.10;;;2.65;;
61756;SDS011;57225;61.460;24.060;2023-04-28T06:26:14;9.80;;;3.20;;
61756;SDS011;57225;61.460;24.060;2023-04-28T06:28:59;15.63;;;3.53;;
61756;SDS011;57225;61.460;24.060;2023-04-28T06:31:44;8.57;;;2.60;;
61756;SDS011;57225;61.460;24.060;2023-04-28T06:34:29;7.00;;;2.83;;
61756;SDS011;57225;61.460;24.060;2023-04-28T06:37:14;9.07;;;3.10;;
61756;SDS011;57225;61.460;24.060;2023-04-28T06:39:58;12.68;;;3.10;;
61756;SDS011;57225;61.460;24.060;2023-04-28T06:42:43;10.13;;;2.70;;
61756;SDS011;57225;61.460;24.060;2023-04-28T06:45:27;24.40;;;3.03;;
61756;SDS011;57225;61.460;24.060;2023-04-28T06:48:11;12.05;;;3.22;;
61756;SDS011;57225;61.460;24.060;2023-04-28T06:50:56;10.07;;;3.03;;
61756;SDS011;57225;61.460;24.060;2023-04-28T06:53:40;13.35;;;3.08;;
61756;SDS011;57225;61.460;24.060;2023-04-28T06:56:25;12.20;;;2.88;;
61756;SDS011;57225;61.460;24.060;2023-04-28T06:59:10;9.32;;;2.70;;
61756;SDS011;57225;61.460;24.060;2023-04-28T07:01:54;7.78;;;2.70;;
61756;SDS011;57225;61.460;24.060;2023-04-28T07:04:39;10.82;;;2.63;;
61756;SDS011;57225;61.460;24.060;2023-04-28T07:07:24;16.45;;;2.65;;
61756;SDS011;57225;61.460;24.060;2023-04-28T07:10:09;7.03;;;2.90;;
61756;SDS011;57225;61.460;24.060;2023-04-28T07:12:54;13.20;;;2.95;;
61756;SDS011;57225;61.460;24.060;2023-04-28T07:15:38;12.07;;;2.80;;
61756;SDS011;57225;61.460;24.060;2023-04-28T07:18:23;10.48;;;2.90;;
61756;SDS011;57225;61.460;24.060;2023-04-28T07:21:07;16.15;;;3.20;;
61756;SDS011;57225;61.460;24.060;2023-04-28T07:23:52;20.48;;;3.10;;
61756;SDS011;57225;61.460;24.060;2023-04-28T07:26:39;13.80;;;2.80;;
61756;SDS011;57225;61.460;24.060;2023-04-28T07:29:24;10.73;;;3.20;;
61756;SDS011;57225;61.460;24.060;2023-04-28T07:32:11;20.30;;;2.90;;
61756;SDS011;57225;61.460;24.060;2023-04-28T07:34:56;15.65;;;3.50;;
61756;SDS011;57225;61.460;24.060;2023-04-28T07:37:40;10.95;;;2.60;;
61756;SDS011;57225;61.460;24.060;2023-04-28T07:40:25;9.30;;;2.55;;
61756;SDS011;57225;61.460;24.060;2023-04-28T07:43:09;6.53;;;2.60;;
61756;SDS011;57225;61.460;24.060;2023-04-28T07:45:54;9.50;;;2.20;;
61756;SDS011;57225;61.460;24.060;2023-04-28T07:48:48;9.43;;;2.20;;
61756;SDS011;57225;61.460;24.060;2023-04-28T07:51:45;6.22;;;2.38;;
61756;SDS011;57225;61.460;24.060;2023-04-28T07:54:29;16.10;;;2.42;;
61756;SDS011;57225;61.460;24.060;2023-04-28T07:57:14;6.32;;;2.22;;
61756;SDS011;57225;61.460;24.060;2023-04-28T07:59:58;12.15;;;2.50;;
61756;SDS011;57225;61.460;24.060;2023-04-28T08:02:44;8.23;;;1.80;;
61756;SDS011;57225;61.460;24.060;2023-04-28T08:05:28;9.45;;;1.98;;
61756;SDS011;57225;61.460;24.060;2023-04-28T08:08:14;9.75;;;1.95;;
61756;SDS011;57225;61.460;24.060;2023-04-28T08:10:58;9.27;;;2.10;;
61756;SDS011;57225;61.460;24.060;2023-04-28T08:13:43;16.45;;;2.50;;
61756;SDS011;57225;61.460;24.060;2023-04-28T08:16:28;12.45;;;1.73;;
61756;SDS011;57225;61.460;24.060;2023-04-28T08:19:13;12.52;;;2.28;;
61756;SDS011;57225;61.460;24.060;2023-04-28T08:21:57;6.28;;;1.75;;
61756;SDS011;57225;61.460;24.060;2023-04-28T08:24:43;6.10;;;1.60;;
61756;SDS011;57225;61.460;24.060;2023-04-28T08:27:27;8.70;;;1.88;;
61756;SDS011;57225;61.460;24.060;2023-04-28T08:30:11;5.35;;;1.38;;
61756;SDS011;57225;61.460;24.060;2023-04-28T08:32:56;14.88;;;2.40;;
61756;SDS011;57225;61.460;24.060;2023-04-28T08:35:40;15.48;;;2.33;;
61756;SDS011;57225;61.460;24.060;2023-04-28T08:38:25;3.38;;;1.50;;
61756;SDS011;57225;61.460;24.060;2023-04-28T08:41:11;7.43;;;1.95;;
61756;SDS011;57225;61.460;24.060;2023-04-28T08:43:58;6.47;;;1.50;;
61756;SDS011;57225;61.460;24.060;2023-04-28T08:46:43;4.85;;;1.60;;
61756;SDS011;57225;61.460;24.060;2023-04-28T08:49:47;6.43;;;1.55;;
61756;SDS011;57225;61.460;24.060;2023-04-28T08:52:32;8.02;;;1.52;;
61756;SDS011;57225;61.460;24.060;2023-04-28T08:55:17;7.30;;;1.42;;
61756;SDS011;57225;61.460;24.060;2023-04-28T08:58:02;6.53;;;1.60;;
61756;SDS011;57225;61.460;24.060;2023-04-28T09:00:48;3.55;;;1.30;;
61756;SDS011;57225;61.460;24.060;2023-04-28T09:03:32;7.97;;;1.33;;
61756;SDS011;57225;61.460;24.060;2023-04-28T09:06:17;10.07;;;1.55;;
61756;SDS011;57225;61.460;24.060;2023-04-28T09:12:05;8.95;;;2.08;;
61756;SDS011;57225;61.460;24.060;2023-04-28T09:14:50;11.63;;;2.08;;
61756;SDS011;57225;61.460;24.060;2023-04-28T09:17:47;7.80;;;1.60;;
61756;SDS011;57225;61.460;24.060;2023-04-28T09:20:34;9.38;;;1.23;;
61756;SDS011;57225;61.460;24.060;2023-04-28T09:23:20;8.10;;;1.30;;
61756;SDS011;57225;61.460;24.060;2023-04-28T09:26:05;3.60;;;1.30;;
61756;SDS011;57225;61.460;24.060;2023-04-28T09:28:50;6.00;;;1.20;;
61756;SDS011;57225;61.460;24.060;2023-04-28T09:31:34;6.45;;;1.52;;
61756;SDS011;57225;61.460;24.060;2023-04-28T09:34:23;5.15;;;1.20;;
61756;SDS011;57225;61.460;24.060;2023-04-28T09:37:15;6.45;;;1.13;;
61756;SDS011;57225;61.460;24.060;2023-04-28T09:42:52;5.00;;;1.15;;
61756;SDS011;57225;61.460;24.060;2023-04-28T09:45:38;7.75;;;1.40;;
61756;SDS011;57225;61.460;24.060;2023-04-28T09:48:35;4.57;;;1.17;;
61756;SDS011;57225;61.460;24.060;2023-04-28T09:51:23;4.82;;;1.10;;
61756;SDS011;57225;61.460;24.060;2023-04-28T09:54:08;10.15;;;1.67;;
61756;SDS011;57225;61.460;24.060;2023-04-28T09:56:54;7.90;;;1.10;;
61756;SDS011;57225;61.460;24.060;2023-04-28T09:59:39;5.70;;;1.13;;
61756;SDS011;57225;61.460;24.060;2023-04-28T10:02:26;4.65;;;1.40;;
61756;SDS011;57225;61.460;24.060;2023-04-28T10:05:11;6.97;;;1.35;;
61756;SDS011;57225;61.460;24.060;2023-04-28T10:08:00;3.43;;;1.47;;
61756;SDS011;57225;61.460;24.060;2023-04-28T10:10:46;3.45;;;1.08;;
61756;SDS011;57225;61.460;24.060;2023-04-28T10:13:33;6.03;;;1.10;;
61756;SDS011;57225;61.460;24.060;2023-04-28T10:16:18;5.07;;;1.30;;
61756;SDS011;57225;61.460;24.060;2023-04-28T10:19:03;9.15;;;1.40;;
61756;SDS011;57225;61.460;24.060;2023-04-28T10:21:51;5.53;;;1.25;;
61756;SDS011;57225;61.460;24.060;2023-04-28T10:25:11;3.95;;;1.30;;
61756;SDS011;57225;61.460;24.060;2023-04-28T10:28:08;5.97;;;1.33;;
61756;SDS011;57225;61.460;24.060;2023-04-28T10:31:09;5.65;;;1.50;;
61756;SDS011;57225;61.460;24.060;2023-04-28T10:34:22;4.72;;;1.08;;
61756;SDS011;57225;61.460;24.060;2023-04-28T10:37:08;3.30;;;1.00;;
61756;SDS011;57225;61.460;24.060;2023-04-28T10:46:17;5.07;;;1.30;;
61756;SDS011;57225;61.460;24.060;2023-04-28T10:49:01;7.57;;;1.27;;
61756;SDS011;57225;61.460;24.060;2023-04-28T10:51:45;2.28;;;1.10;;
61756;SDS011;57225;61.460;24.060;2023-04-28T10:54:30;2.88;;;1.20;;
61756;SDS011;57225;61.460;24.060;2023-04-28T10:57:18;4.43;;;0.90;;
61756;SDS011;57225;61.460;24.060;2023-04-28T11:06:27;4.75;;;1.15;;
61756;SDS011;57225;61.460;24.060;2023-04-28T11:12:03;6.05;;;1.42;;
61756;SDS011;57225;61.460;24.060;2023-04-28T11:14:49;6.07;;;1.27;;
61756;SDS011;57225;61.460;24.060;2023-04-28T11:17:40;17.92;;;2.20;;
61756;SDS011;57225;61.460;24.060;2023-04-28T11:20:25;6.78;;;1.02;;
61756;SDS011;57225;61.460;24.060;2023-04-28T11:23:11;4.47;;;1.00;;
61756;SDS011;57225;61.460;24.060;2023-04-28T11:25:55;6.13;;;1.20;;
61756;SDS011;57225;61.460;24.060;2023-04-28T11:28:53;3.78;;;0.88;;
61756;SDS011;57225;61.460;24.060;2023-04-28T11:34:25;3.05;;;0.70;;
61756;SDS011;57225;61.460;24.060;2023-04-28T11:37:14;4.88;;;1.10;;
61756;SDS011;57225;61.460;24.060;2023-04-28T11:39:58;7.72;;;1.45;;
61756;SDS011;57225;61.460;24.060;2023-04-28T11:42:53;3.35;;;1.17;;
61756;SDS011;57225;61.460;24.060;2023-04-28T11:45:39;16.90;;;2.15;;
61756;SDS011;57225;61.460;24.060;2023-04-28T11:51:47;4.45;;;0.90;;
61756;SDS011;57225;61.460;24.060;2023-04-28T11:54:32;9.82;;;0.82;;
61756;SDS011;57225;61.460;24.060;2023-04-28T11:57:18;6.57;;;1.20;;
61756;SDS011;57225;61.460;24.060;2023-04-28T12:00:14;11.35;;;1.33;;
61756;SDS011;57225;61.460;24.060;2023-04-28T12:03:07;1.52;;;0.88;;
61756;SDS011;57225;61.460;24.060;2023-04-28T12:05:52;4.32;;;0.80;;
61756;SDS011;57225;61.460;24.060;2023-04-28T12:08:36;1.77;;;0.60;;
61756;SDS011;57225;61.460;24.060;2023-04-28T12:11:21;13.70;;;1.60;;
61756;SDS011;57225;61.460;24.060;2023-04-28T12:14:06;5.60;;;0.95;;
61756;SDS011;57225;61.460;24.060;2023-04-28T12:16:51;7.65;;;1.15;;
61756;SDS011;57225;61.460;24.060;2023-04-28T12:19:42;4.60;;;0.55;;
61756;SDS011;57225;61.460;24.060;2023-04-28T12:22:28;3.42;;;0.75;;
61756;SDS011;57225;61.460;24.060;2023-04-28T12:25:15;2.60;;;0.60;;
61756;SDS011;57225;61.460;24.060;2023-04-28T12:28:05;5.87;;;1.03;;
61756;SDS011;57225;61.460;24.060;2023-04-28T12:31:01;6.18;;;0.77;;
61756;SDS011;57225;61.460;24.060;2023-04-28T12:33:47;2.60;;;0.75;;
61756;SDS011;57225;61.460;24.060;2023-04-28T12:36:33;4.82;;;0.98;;
61756;SDS011;57225;61.460;24.060;2023-04-28T12:39:17;6.28;;;1.05;;
61756;SDS011;57225;61.460;24.060;2023-04-28T12:42:03;2.13;;;0.80;;
61756;SDS011;57225;61.460;24.060;2023-04-28T12:44:47;1.23;;;0.50;;
61756;SDS011;57225;61.460;24.060;2023-04-28T12:47:32;4.32;;;0.90;;
61756;SDS011;57225;61.460;24.060;2023-04-28T12:50:17;7.50;;;1.58;;
61756;SDS011;57225;61.460;24.060;2023-04-28T12:53:01;3.85;;;1.05;;
61756;SDS011;57225;61.460;24.060;2023-04-28T12:55:46;8.65;;;1.15;;
61756;SDS011;57225;61.460;24.060;2023-04-28T12:58:30;8.10;;;0.95;;
61756;SDS011;57225;61.460;24.060;2023-04-28T13:01:15;4.03;;;1.25;;
61756;SDS011;57225;61.460;24.060;2023-04-28T13:03:59;3.80;;;1.15;;
61756;SDS011;57225;61.460;24.060;2023-04-28T13:06:43;5.30;;;1.20;;
61756;SDS011;57225;61.460;24.060;2023-04-28T13:09:28;5.50;;;0.73;;
61756;SDS011;57225;61.460;24.060;2023-04-28T13:12:12;2.42;;;0.77;;
61756;SDS011;57225;61.460;24.060;2023-04-28T13:14:57;9.38;;;1.30;;
61756;SDS011;57225;61.460;24.060;2023-04-28T13:17:41;4.97;;;1.30;;
61756;SDS011;57225;61.460;24.060;2023-04-28T13:20:27;10.25;;;1.73;;
61756;SDS011;57225;61.460;24.060;2023-04-28T13:23:12;7.82;;;1.52;;
61756;SDS011;57225;61.460;24.060;2023-04-28T13:25:56;12.85;;;1.88;;
61756;SDS011;57225;61.460;24.060;2023-04-28T13:28:41;6.65;;;1.30;;
61756;SDS011;57225;61.460;24.060;2023-04-28T13:31:25;6.32;;;1.90;;
61756;SDS011;57225;61.460;24.060;2023-04-28T13:34:09;8.32;;;1.98;;
61756;SDS011;57225;61.460;24.060;2023-04-28T13:36:59;4.90;;;1.00;;
61756;SDS011;57225;61.460;24.060;2023-04-28T13:39:43;3.25;;;0.98;;
61756;SDS011;57225;61.460;24.060;2023-04-28T13:42:27;4.50;;;1.05;;
61756;SDS011;57225;61.460;24.060;2023-04-28T13:45:12;2.03;;;0.43;;
61756;SDS011;57225;61.460;24.060;2023-04-28T13:47:57;3.15;;;0.70;;
61756;SDS011;57225;61.460;24.060;2023-04-28T13:50:41;35.20;;;2.30;;
61756;SDS011;57225;61.460;24.060;2023-04-28T13:53:26;8.68;;;1.20;;
61756;SDS011;57225;61.460;24.060;2023-04-28T13:56:10;2.50;;;0.70;;
61756;SDS011;57225;61.460;24.060;2023-04-28T13:58:54;2.50;;;0.70;;
61756;SDS011;57225;61.460;24.060;2023-04-28T14:01:39;8.68;;;1.00;;
61756;SDS011;57225;61.460;24.060;2023-04-28T14:04:23;3.15;;;1.02;;
61756;SDS011;57225;61.460;24.060;2023-04-28T14:07:08;5.28;;;0.90;;
61756;SDS011;57225;61.460;24.060;2023-04-28T14:09:52;5.82;;;0.90;;
61756;SDS011;57225;61.460;24.060;2023-04-28T14:12:38;4.53;;;1.20;;
61756;SDS011;57225;61.460;24.060;2023-04-28T14:15:23;4.43;;;0.90;;
61756;SDS011;57225;61.460;24.060;2023-04-28T14:18:08;4.72;;;0.60;;
61756;SDS011;57225;61.460;24.060;2023-04-28T14:20:52;1.27;;;0.50;;
61756;SDS011;57225;61.460;24.060;2023-04-28T14:23:37;8.25;;;1.00;;
61756;SDS011;57225;61.460;24.060;2023-04-28T14:26:21;4.45;;;1.10;;
61756;SDS011;57225;61.460;24.060;2023-04-28T14:29:07;1.92;;;0.80;;
61756;SDS011;57225;61.460;24.060;2023-04-28T14:31:52;4.85;;;0.88;;
61756;SDS011;57225;61.460;24.060;2023-04-28T14:34:36;3.00;;;0.80;;
61756;SDS011;57225;61.460;24.060;2023-04-28T14:37:21;3.13;;;0.90;;
61756;SDS011;57225;61.460;24.060;2023-04-28T14:40:06;2.47;;;0.80;;
61756;SDS011;57225;61.460;24.060;2023-04-28T14:42:51;7.93;;;1.15;;
61756;SDS011;57225;61.460;24.060;2023-04-28T14:45:44;3.67;;;1.10;;
61756;SDS011;57225;61.460;24.060;2023-04-28T14:48:35;5.10;;;0.82;;
61756;SDS011;57225;61.460;24.060;2023-04-28T14:51:41;2.35;;;0.85;;
61756;SDS011;57225;61.460;24.060;2023-04-28T14:54:26;7.45;;;1.00;;
61756;SDS011;57225;61.460;24.060;2023-04-28T14:57:10;3.60;;;1.10;;
61756;SDS011;57225;61.460;24.060;2023-04-28T14:59:56;4.00;;;1.20;;
61756;SDS011;57225;61.460;24.060;2023-04-28T15:02:41;4.78;;;1.90;;
61756;SDS011;57225;61.460;24.060;2023-04-28T15:05:26;2.90;;;1.00;;
61756;SDS011;57225;61.460;24.060;2023-04-28T15:08:10;6.57;;;1.02;;
61756;SDS011;57225;61.460;24.060;2023-04-28T15:10:55;5.95;;;1.00;;
61756;SDS011;57225;61.460;24.060;2023-04-28T15:13:40;7.75;;;1.30;;
61756;SDS011;57225;61.460;24.060;2023-04-28T15:16:24;14.38;;;2.25;;
61756;SDS011;57225;61.460;24.060;2023-04-28T15:19:10;1.98;;;1.00;;
61756;SDS011;57225;61.460;24.060;2023-04-28T15:21:56;3.58;;;1.17;;
61756;SDS011;57225;61.460;24.060;2023-04-28T15:24:41;7.45;;;0.90;;
61756;SDS011;57225;61.460;24.060;2023-04-28T15:27:25;6.78;;;1.27;;
61756;SDS011;57225;61.460;24.060;2023-04-28T15:30:10;3.92;;;1.10;;
61756;SDS011;57225;61.460;24.060;2023-04-28T15:32:55;2.75;;;1.25;;
61756;SDS011;57225;61.460;24.060;2023-04-28T15:35:39;1.65;;;0.80;;
61756;SDS011;57225;61.460;24.060;2023-04-28T15:38:24;6.75;;;1.30;;
61756;SDS011;57225;61.460;24.060;2023-04-28T15:41:12;6.57;;;1.25;;
61756;SDS011;57225;61.460;24.060;2023-04-28T15:43:57;5.07;;;1.17;;
61756;SDS011;57225;61.460;24.060;2023-04-28T15:46:43;4.78;;;1.38;;
61756;SDS011;57225;61.460;24.060;2023-04-28T15:49:31;7.80;;;1.50;;
61756;SDS011;57225;61.460;24.060;2023-04-28T15:52:15;8.35;;;2.33;;
61756;SDS011;57225;61.460;24.060;2023-04-28T15:55:01;6.53;;;1.35;;
61756;SDS011;57225;61.460;24.060;2023-04-28T15:57:45;5.55;;;1.30;;
61756;SDS011;57225;61.460;24.060;2023-04-28T16:00:30;2.78;;;1.00;;
61756;SDS011;57225;61.460;24.060;2023-04-28T16:03:16;6.43;;;1.10;;
61756;SDS011;57225;61.460;24.060;2023-04-28T16:06:00;3.03;;;1.20;;
61756;SDS011;57225;61.460;24.060;2023-04-28T16:08:46;3.45;;;1.17;;
61756;SDS011;57225;61.460;24.060;2023-04-28T16:11:31;2.15;;;0.85;;
61756;SDS011;57225;61.460;24.060;2023-04-28T16:14:15;6.35;;;1.40;;
61756;SDS011;57225;61.460;24.060;2023-04-28T16:17:00;3.58;;;1.30;;
61756;SDS011;57225;61.460;24.060;2023-04-28T16:19:45;2.08;;;1.50;;
61756;SDS011;57225;61.460;24.060;2023-04-28T16:22:29;5.82;;;2.17;;
61756;SDS011;57225;61.460;24.060;2023-04-28T16:25:14;4.53;;;1.30;;
61756;SDS011;57225;61.460;24.060;2023-04-28T16:27:59;2.75;;;1.40;;
61756;SDS011;57225;61.460;24.060;2023-04-28T16:30:44;2.75;;;1.17;;
61756;SDS011;57225;61.460;24.060;2023-04-28T16:33:31;5.30;;;1.05;;
61756;SDS011;57225;61.460;24.060;2023-04-28T16:36:16;2.85;;;1.00;;
61756;SDS011;57225;61.460;24.060;2023-04-28T16:39:00;3.45;;;1.40;;
61756;SDS011;57225;61.460;24.060;2023-04-28T16:41:45;2.13;;;0.90;;
61756;SDS011;57225;61.460;24.060;2023-04-28T16:44:30;5.88;;;0.82;;
61756;SDS011;57225;61.460;24.060;2023-04-28T16:47:15;2.33;;;0.90;;
61756;SDS011;57225;61.460;24.060;2023-04-28T16:49:59;6.18;;;1.02;;